createdAt,value
2022-10-07T00:00:00.136Z,22.00
2022-10-07T00:05:02.082Z,21.95
2022-10-07T00:10:04.388Z,22.01
2022-10-07T00:15:07.556Z,22.02
2022-10-07T00:20:09.918Z,21.96
2022-10-07T00:25:11.713Z,21.99
2022-10-07T00:30:13.916Z,21.90
2022-10-07T00:35:15.986Z,21.97
2022-10-07T00:40:17.873Z,21.92
2022-10-07T00:45:21.632Z,21.95
2022-10-07T00:50:29.694Z,21.92
2022-10-07T00:55:32.256Z,21.96
2022-10-07T01:00:34.410Z,21.92
2022-10-07T01:05:36.396Z,21.97
2022-10-07T01:10:57.439Z,21.94
2022-10-07T01:16:10.882Z,21.94
2022-10-07T01:21:40.838Z,21.91
2022-10-07T01:26:51.366Z,21.91
2022-10-07T01:32:22.055Z,21.87
2022-10-07T01:37:25.880Z,21.91
2022-10-07T01:42:29.000Z,21.94
2022-10-07T01:47:30.896Z,21.89
2022-10-07T01:52:52.073Z,21.86
2022-10-07T01:58:23.205Z,21.87
2022-10-07T02:03:46.680Z,21.95
2022-10-07T02:08:52.973Z,21.93
2022-10-07T02:14:15.087Z,21.87
2022-10-07T02:19:22.450Z,21.86
2022-10-07T02:24:29.586Z,21.89
2022-10-07T02:29:35.824Z,21.98
2022-10-07T02:34:41.378Z,21.90
2022-10-07T02:39:45.636Z,21.99
2022-10-07T02:44:53.381Z,21.90
2022-10-07T02:49:57.507Z,21.94
2022-10-07T02:55:05.966Z,21.92
2022-10-07T03:00:11.303Z,21.85
2022-10-07T03:05:19.476Z,21.91
2022-10-07T03:10:21.721Z,21.90
2022-10-07T03:15:25.278Z,21.97
2022-10-07T03:20:27.532Z,21.96
2022-10-07T03:25:29.715Z,21.95
2022-10-07T03:30:31.524Z,21.88
2022-10-07T03:35:34.166Z,21.93
2022-10-07T03:40:36.286Z,21.92
2022-10-07T03:45:44.595Z,21.95
2022-10-07T03:50:53.711Z,21.88
2022-10-07T03:55:56.107Z,21.87
2022-10-07T04:01:10.667Z,21.93
2022-10-07T04:06:12.484Z,21.89
2022-10-07T04:11:14.327Z,21.89
2022-10-07T04:16:16.560Z,21.85
2022-10-07T04:21:18.419Z,21.93
2022-10-07T04:26:20.356Z,21.89
2022-10-07T04:31:22.245Z,21.84
2022-10-07T04:36:25.722Z,21.86
2022-10-07T04:41:27.867Z,21.86
2022-10-07T04:46:29.918Z,21.82
2022-10-07T04:51:31.909Z,21.82
2022-10-07T04:56:33.937Z,21.83
2022-10-07T05:01:35.987Z,21.92
2022-10-07T05:06:38.082Z,21.84
2022-10-07T05:11:39.883Z,21.84
2022-10-07T05:16:42.783Z,21.85
2022-10-07T05:21:44.676Z,21.90
2022-10-07T05:26:46.429Z,21.85
2022-10-07T05:31:49.445Z,21.81
2022-10-07T05:36:51.367Z,21.84
2022-10-07T05:41:53.259Z,21.78
2022-10-07T05:46:55.183Z,21.82
2022-10-07T05:51:57.241Z,21.79
2022-10-07T05:56:59.314Z,21.80
2022-10-07T06:02:01.211Z,21.81
2022-10-07T06:07:04.308Z,21.81
2022-10-07T06:12:24.999Z,21.77
2022-10-07T06:17:26.820Z,21.81
2022-10-07T06:22:28.532Z,21.79
2022-10-07T06:27:30.360Z,21.80
2022-10-07T06:32:32.951Z,21.78
2022-10-07T06:37:34.781Z,21.81
2022-10-07T06:42:36.771Z,21.84
2022-10-07T06:47:39.298Z,21.79
2022-10-07T06:52:43.485Z,21.79
2022-10-07T06:57:46.374Z,21.75
2022-10-07T07:02:48.479Z,21.79
2022-10-07T07:07:50.556Z,21.74
2022-10-07T07:12:56.016Z,21.74
2022-10-07T07:17:57.941Z,21.74
2022-10-07T07:22:59.886Z,21.76
2022-10-07T07:28:02.378Z,21.88
2022-10-07T07:33:05.603Z,21.92
2022-10-07T07:38:07.926Z,22.02
2022-10-07T07:43:09.673Z,22.00
2022-10-07T07:48:14.231Z,21.94
2022-10-07T07:53:16.088Z,21.92
2022-10-07T07:58:18.109Z,21.94
2022-10-07T08:03:20.107Z,21.87
2022-10-07T08:08:22.292Z,21.87
2022-10-07T08:13:24.997Z,21.93
2022-10-07T08:18:27.253Z,21.91
2022-10-07T08:23:30.523Z,21.88
2022-10-07T08:28:32.962Z,21.91
2022-10-07T08:33:39.912Z,21.89
2022-10-07T08:38:42.543Z,21.91
2022-10-07T08:43:47.781Z,21.87
2022-10-07T08:49:01.109Z,21.86
2022-10-07T08:54:02.881Z,21.90
2022-10-07T08:59:34.923Z,21.93
2022-10-07T09:04:59.094Z,21.91
2022-10-07T09:10:09.786Z,22.00
2022-10-07T09:15:23.366Z,21.98
2022-10-07T09:20:40.102Z,22.01
2022-10-07T09:25:43.862Z,22.05
2022-10-07T09:30:45.740Z,21.89
2022-10-07T09:35:57.920Z,22.00
2022-10-07T09:41:24.298Z,21.97
2022-10-07T09:46:39.357Z,22.00
2022-10-07T09:51:41.521Z,21.98
2022-10-07T09:56:45.418Z,22.07
2022-10-07T10:01:51.391Z,21.98
2022-10-07T10:06:55.662Z,21.97
2022-10-07T10:12:13.434Z,22.00
2022-10-07T10:17:30.083Z,22.06
2022-10-07T10:22:31.982Z,22.09
2022-10-07T10:27:55.604Z,21.95
2022-10-07T10:33:09.824Z,21.90
2022-10-07T10:38:23.727Z,21.86
2022-10-07T10:43:25.860Z,21.82
2022-10-07T10:48:47.087Z,21.85
2022-10-07T10:54:10.626Z,21.90
2022-10-07T10:59:44.510Z,21.86
2022-10-07T11:04:50.434Z,21.83
2022-10-07T11:09:57.645Z,21.88
2022-10-07T11:15:25.602Z,21.91
2022-10-07T11:20:41.005Z,21.91
2022-10-07T11:26:00.352Z,21.88
2022-10-07T11:31:15.846Z,21.81
2022-10-07T11:36:47.084Z,21.83
2022-10-07T11:41:58.223Z,21.79
2022-10-07T11:47:03.697Z,21.86
2022-10-07T11:52:11.225Z,21.88
2022-10-07T11:57:24.382Z,21.81
2022-10-07T12:02:29.354Z,21.96
2022-10-07T12:07:37.131Z,21.98
2022-10-07T12:12:45.565Z,21.91
2022-10-07T12:18:17.597Z,21.90
2022-10-07T12:23:19.360Z,21.92
2022-10-07T12:28:40.422Z,21.88
2022-10-07T12:33:45.065Z,21.92
2022-10-07T12:39:12.526Z,21.82
2022-10-07T12:44:23.275Z,21.86
2022-10-07T12:49:31.122Z,21.85
2022-10-07T12:54:49.993Z,21.92
2022-10-07T13:00:08.287Z,21.89
2022-10-07T13:05:36.136Z,21.98
2022-10-07T13:11:15.400Z,21.93
2022-10-07T13:16:49.613Z,21.97
2022-10-07T13:21:57.005Z,22.06
2022-10-07T13:27:00.401Z,22.05
2022-10-07T13:32:11.304Z,22.01
2022-10-07T13:37:36.003Z,22.00
2022-10-07T13:42:38.000Z,22.08
2022-10-07T13:47:43.319Z,22.02
2022-10-07T13:52:47.772Z,22.06
2022-10-07T13:57:49.804Z,22.02
2022-10-07T14:02:52.376Z,22.07
2022-10-07T14:08:16.582Z,22.11
2022-10-07T14:13:18.882Z,21.98
2022-10-07T14:18:21.203Z,21.98
2022-10-07T14:23:33.075Z,22.09
2022-10-07T14:28:36.613Z,22.20
2022-10-07T14:34:10.377Z,22.08
2022-10-07T14:39:42.697Z,22.15
2022-10-07T14:44:44.857Z,22.20
2022-10-07T14:49:49.711Z,22.19
2022-10-07T14:54:53.003Z,22.13
2022-10-07T14:59:55.511Z,21.95
2022-10-07T15:04:57.473Z,21.91
2022-10-07T15:09:59.248Z,21.95
2022-10-07T15:15:01.130Z,21.95
2022-10-07T15:20:03.721Z,21.93
2022-10-07T15:25:07.428Z,22.00
2022-10-07T15:30:09.916Z,22.08
2022-10-07T15:35:11.896Z,22.23
2022-10-07T15:40:13.643Z,22.22
2022-10-07T15:45:15.520Z,22.12
2022-10-07T15:50:17.339Z,22.24
2022-10-07T15:55:19.693Z,22.13
2022-10-07T16:00:22.033Z,22.05
2022-10-07T16:05:24.716Z,21.97
2022-10-07T16:10:26.722Z,21.87
2022-10-07T16:15:28.822Z,21.86
2022-10-07T16:20:30.685Z,21.82
2022-10-07T16:25:32.573Z,21.84
2022-10-07T16:30:43.473Z,21.80
2022-10-07T16:35:45.664Z,21.75
2022-10-07T16:40:54.961Z,21.89
2022-10-07T16:46:02.303Z,22.01
2022-10-07T16:51:05.979Z,22.02
2022-10-07T16:56:08.525Z,22.11
2022-10-07T17:01:13.830Z,22.07
2022-10-07T17:06:18.197Z,22.07
2022-10-07T17:11:31.747Z,22.00
2022-10-07T17:16:42.313Z,22.06
2022-10-07T17:21:45.816Z,22.06
2022-10-07T17:26:48.646Z,22.06
2022-10-07T17:31:51.307Z,22.05
2022-10-07T17:36:53.554Z,22.06
2022-10-07T17:41:55.676Z,22.19
2022-10-07T17:46:59.649Z,22.22
2022-10-07T17:52:01.759Z,22.13
2022-10-07T17:57:04.471Z,22.06
2022-10-07T18:02:06.490Z,22.15
2022-10-07T18:07:08.348Z,22.18
2022-10-07T18:12:28.958Z,22.11
2022-10-07T18:17:33.262Z,22.16
2022-10-07T18:22:35.032Z,22.18
2022-10-07T18:27:36.787Z,22.15
2022-10-07T18:32:38.856Z,22.12
2022-10-07T18:37:40.725Z,22.15
2022-10-07T18:42:42.772Z,22.11
2022-10-07T18:47:45.021Z,22.12
2022-10-07T18:52:46.962Z,22.15
2022-10-07T18:57:49.015Z,22.14
2022-10-07T19:02:51.441Z,22.15
2022-10-07T19:07:53.139Z,22.16
2022-10-07T19:13:17.187Z,22.16
2022-10-07T19:18:21.770Z,22.07
2022-10-07T19:23:23.801Z,22.18
2022-10-07T19:28:26.414Z,22.13
2022-10-07T19:33:28.134Z,22.19
2022-10-07T19:38:30.022Z,22.16
2022-10-07T19:43:35.250Z,22.17
2022-10-07T19:48:38.623Z,22.26
2022-10-07T19:53:46.824Z,22.22
2022-10-07T19:58:59.227Z,22.24
2022-10-07T20:04:06.918Z,22.23
2022-10-07T20:09:11.818Z,22.10
2022-10-07T20:14:16.078Z,22.15
2022-10-07T20:19:19.783Z,22.12
2022-10-07T20:24:21.527Z,22.16
2022-10-07T20:29:25.356Z,22.19
2022-10-07T20:34:27.679Z,22.18
2022-10-07T20:39:48.420Z,22.24
2022-10-07T20:44:51.395Z,22.19
2022-10-07T20:49:55.603Z,22.21
2022-10-07T20:54:57.719Z,22.17
2022-10-07T20:59:59.620Z,22.18
2022-10-07T21:05:01.461Z,22.19
2022-10-07T21:10:03.374Z,22.19
2022-10-07T21:15:05.687Z,22.24
2022-10-07T21:20:07.825Z,22.18
2022-10-07T21:25:11.959Z,22.18
2022-10-07T21:30:13.787Z,22.12
2022-10-07T21:35:15.763Z,22.19
2022-10-07T21:40:17.566Z,22.19
2022-10-07T21:45:19.354Z,22.18
2022-10-07T21:50:21.571Z,22.23
2022-10-07T21:55:23.679Z,22.25
2022-10-07T22:00:26.954Z,22.20
2022-10-07T22:05:29.269Z,22.09
2022-10-07T22:10:31.705Z,22.22
2022-10-07T22:15:37.241Z,22.24
2022-10-07T22:20:39.120Z,22.21
2022-10-07T22:25:40.860Z,22.19
2022-10-07T22:30:42.717Z,22.26
2022-10-07T22:35:44.731Z,22.17
2022-10-07T22:40:46.549Z,22.14
2022-10-07T22:45:59.121Z,22.20
2022-10-07T22:51:08.485Z,22.22
2022-10-07T22:56:12.179Z,22.21
2022-10-07T23:01:15.681Z,22.10
2022-10-07T23:06:19.462Z,22.14
2022-10-07T23:11:23.847Z,22.18
2022-10-07T23:16:29.758Z,22.16
2022-10-07T23:21:34.594Z,22.22
2022-10-07T23:26:37.014Z,22.19
2022-10-07T23:31:39.238Z,22.15
2022-10-07T23:36:44.061Z,22.12
2022-10-07T23:41:45.825Z,22.19
2022-10-07T23:46:47.566Z,22.15
2022-10-07T23:51:49.564Z,22.17
2022-10-07T23:56:51.317Z,22.12
